createdAt,value
2023-05-21T00:00:56.522Z,67.19
2023-05-21T00:01:56.498Z,67.35
2023-05-21T00:02:56.595Z,68.32
2023-05-21T00:03:56.569Z,68.80
2023-05-21T00:04:56.484Z,68.80
2023-05-21T00:05:56.528Z,68.80
2023-05-21T00:06:56.453Z,68.48
2023-05-21T00:07:56.437Z,68.32
2023-05-21T00:08:56.428Z,68.32
2023-05-21T00:09:56.461Z,68.48
2023-05-21T00:10:56.402Z,68.80
2023-05-21T00:11:56.403Z,66.71
2023-05-21T00:12:56.386Z,68.48
2023-05-21T00:13:56.374Z,68.64
2023-05-21T00:14:56.369Z,68.64
2023-05-21T00:15:57.362Z,68.64
2023-05-21T00:16:56.341Z,66.87
2023-05-21T00:17:56.449Z,68.16
2023-05-21T00:18:56.396Z,68.48
2023-05-21T00:19:56.328Z,68.32
2023-05-21T00:20:56.307Z,68.32
2023-05-21T00:21:56.288Z,68.64
2023-05-21T00:22:56.282Z,66.87
2023-05-21T00:23:56.306Z,68.00
2023-05-21T00:24:56.258Z,68.48
2023-05-21T00:25:56.243Z,68.64
2023-05-21T00:26:57.253Z,68.16
2023-05-21T00:27:56.245Z,68.00
2023-05-21T00:28:56.220Z,68.16
2023-05-21T00:29:56.206Z,68.00
2023-05-21T00:30:56.191Z,68.48
2023-05-21T00:31:56.277Z,66.87
2023-05-21T00:32:56.198Z,67.35
2023-05-21T00:33:56.175Z,67.03
2023-05-21T00:34:56.152Z,67.19
2023-05-21T00:35:56.139Z,66.87
2023-05-21T00:36:56.139Z,68.48
2023-05-21T00:37:56.143Z,68.00
2023-05-21T00:38:56.122Z,68.48
2023-05-21T00:39:57.562Z,68.32
2023-05-21T00:40:56.084Z,68.48
2023-05-21T00:41:56.071Z,68.48
2023-05-21T00:42:56.083Z,66.23
2023-05-21T00:43:56.061Z,68.80
2023-05-21T00:44:56.041Z,66.55
2023-05-21T00:45:56.089Z,68.96
2023-05-21T00:46:56.129Z,66.71
2023-05-21T00:47:56.062Z,66.87
2023-05-21T00:48:56.001Z,67.19
2023-05-21T00:49:55.997Z,68.48
2023-05-21T00:50:55.979Z,67.51
2023-05-21T00:51:56.188Z,67.51
2023-05-21T00:52:55.958Z,67.19
2023-05-21T00:53:55.954Z,66.71
2023-05-21T00:54:55.937Z,66.55
2023-05-21T00:55:55.932Z,68.80
2023-05-21T00:56:55.943Z,68.80
2023-05-21T00:57:55.913Z,68.48
2023-05-21T00:58:55.900Z,68.48
2023-05-21T00:59:55.888Z,68.64
2023-05-21T01:00:55.950Z,68.64
2023-05-21T01:01:55.951Z,66.23
2023-05-21T01:02:55.985Z,67.19
2023-05-21T01:03:55.841Z,68.00
2023-05-21T01:04:55.841Z,66.55
2023-05-21T01:05:55.840Z,66.23
2023-05-21T01:06:55.818Z,66.39
2023-05-21T01:07:55.802Z,65.90
2023-05-21T01:08:55.783Z,66.06
2023-05-21T01:09:55.779Z,66.39
2023-05-21T01:10:55.779Z,66.71
2023-05-21T01:11:55.772Z,66.39
2023-05-21T01:12:55.744Z,66.39
2023-05-21T01:13:55.736Z,66.39
2023-05-21T01:14:55.727Z,68.64
2023-05-21T01:15:55.724Z,68.80
2023-05-21T01:16:55.736Z,65.90
2023-05-21T01:17:55.745Z,66.55
2023-05-21T01:18:55.791Z,66.39
2023-05-21T01:19:55.687Z,65.90
2023-05-21T01:20:55.688Z,66.87
2023-05-21T01:21:55.652Z,66.71
2023-05-21T01:22:55.646Z,66.23
2023-05-21T01:23:55.632Z,66.55
2023-05-21T01:24:55.652Z,69.13
2023-05-21T01:25:55.608Z,66.55
2023-05-21T01:26:55.610Z,68.80
2023-05-21T01:27:55.599Z,68.48
2023-05-21T01:28:55.595Z,66.55
2023-05-21T01:29:55.585Z,68.00
2023-05-21T01:30:55.563Z,65.58
2023-05-21T01:31:55.568Z,66.39
2023-05-21T01:32:55.606Z,66.06
2023-05-21T01:33:55.556Z,66.06
2023-05-21T01:34:55.538Z,65.26
2023-05-21T01:35:55.520Z,66.39
2023-05-21T01:36:55.498Z,65.42
2023-05-21T01:37:55.497Z,65.10
2023-05-21T01:38:55.491Z,65.26
2023-05-21T01:39:55.474Z,65.58
2023-05-21T01:40:55.472Z,66.39
2023-05-21T01:41:55.467Z,65.74
2023-05-21T01:42:55.452Z,65.42
2023-05-21T01:43:55.451Z,65.74
2023-05-21T01:44:55.424Z,65.42
2023-05-21T01:45:55.511Z,65.58
2023-05-21T01:46:55.420Z,65.90
2023-05-21T01:47:55.429Z,65.58
2023-05-21T01:48:55.393Z,65.90
2023-05-21T01:49:55.379Z,65.42
2023-05-21T01:50:55.364Z,68.16
2023-05-21T01:51:55.350Z,66.23
2023-05-21T01:52:55.362Z,68.64
2023-05-21T01:53:55.333Z,67.19
2023-05-21T01:54:55.328Z,65.58
2023-05-21T01:55:55.310Z,65.26
2023-05-21T01:56:55.299Z,64.61
2023-05-21T01:57:55.314Z,64.94
2023-05-21T01:58:55.275Z,64.94
2023-05-21T01:59:55.275Z,65.42
2023-05-21T02:00:55.261Z,65.10
2023-05-21T02:01:55.296Z,68.00
2023-05-21T02:02:55.290Z,65.42
2023-05-21T02:03:55.321Z,65.26
2023-05-21T02:04:55.225Z,65.10
2023-05-21T02:05:55.206Z,64.61
2023-05-21T02:06:55.205Z,65.10
2023-05-21T02:07:55.177Z,65.26
2023-05-21T02:08:55.179Z,64.78
2023-05-21T02:09:55.156Z,64.78
2023-05-21T02:10:55.158Z,64.78
2023-05-21T02:11:55.154Z,63.81
2023-05-21T02:12:55.194Z,64.45
2023-05-21T02:13:55.118Z,62.52
2023-05-21T02:14:55.110Z,64.13
2023-05-21T02:15:55.470Z,65.58
2023-05-21T02:16:55.097Z,64.29
2023-05-21T02:17:55.140Z,63.65
2023-05-21T02:18:55.070Z,64.94
2023-05-21T02:19:55.058Z,65.26
2023-05-21T02:20:55.059Z,65.10
2023-05-21T02:21:55.035Z,65.26
2023-05-21T02:22:55.027Z,65.10
2023-05-21T02:23:55.021Z,66.23
2023-05-21T02:24:55.012Z,65.10
2023-05-21T02:25:55.009Z,64.61
2023-05-21T02:26:54.983Z,65.58
2023-05-21T02:27:54.976Z,64.94
2023-05-21T02:28:54.967Z,65.26
2023-05-21T02:29:54.972Z,64.78
2023-05-21T02:30:54.939Z,64.94
2023-05-21T02:31:54.937Z,63.81
2023-05-21T02:32:55.041Z,64.13
2023-05-21T02:33:54.925Z,64.13
2023-05-21T02:34:54.911Z,64.45
2023-05-21T02:35:54.890Z,63.49
2023-05-21T02:36:54.962Z,63.49
2023-05-21T02:37:54.873Z,63.81
2023-05-21T02:38:54.863Z,63.81
2023-05-21T02:39:54.864Z,64.78
2023-05-21T02:40:54.842Z,65.26
2023-05-21T02:41:54.844Z,65.58
2023-05-21T02:42:54.817Z,65.10
2023-05-21T02:43:54.815Z,65.10
2023-05-21T02:44:54.809Z,65.26
2023-05-21T02:45:54.806Z,64.29
2023-05-21T02:46:54.773Z,64.61
2023-05-21T02:47:54.789Z,64.94
2023-05-21T02:48:54.864Z,64.61
2023-05-21T02:49:54.743Z,64.61
2023-05-21T02:50:54.747Z,65.10
2023-05-21T02:51:54.722Z,64.29
2023-05-21T02:52:54.707Z,64.61
2023-05-21T02:53:54.720Z,64.78
2023-05-21T02:54:54.686Z,63.33
2023-05-21T02:55:54.679Z,65.10
2023-05-21T02:56:54.659Z,65.42
2023-05-21T02:57:54.688Z,64.45
2023-05-21T02:58:54.659Z,65.26
2023-05-21T02:59:54.636Z,64.61
2023-05-21T03:00:54.653Z,64.78
2023-05-21T03:01:54.642Z,65.90
2023-05-21T03:02:54.765Z,64.45
2023-05-21T03:03:54.601Z,65.58
2023-05-21T03:04:54.583Z,64.45
2023-05-21T03:05:54.574Z,64.61
2023-05-21T03:06:54.555Z,64.61
2023-05-21T03:07:54.562Z,63.65
2023-05-21T03:08:54.536Z,63.81
2023-05-21T03:09:54.540Z,64.61
2023-05-21T03:10:54.517Z,63.97
2023-05-21T03:11:54.510Z,64.45
2023-05-21T03:12:54.499Z,63.33
2023-05-21T03:13:54.479Z,63.97
2023-05-21T03:14:54.471Z,63.00
2023-05-21T03:15:54.460Z,63.97
2023-05-21T03:16:54.513Z,63.16
2023-05-21T03:17:54.611Z,64.61
2023-05-21T03:18:54.452Z,62.68
2023-05-21T03:19:54.424Z,62.84
2023-05-21T03:20:54.409Z,64.94
2023-05-21T03:21:54.408Z,63.00
2023-05-21T03:22:54.390Z,63.81
2023-05-21T03:23:54.376Z,63.65
2023-05-21T03:24:54.369Z,63.00
2023-05-21T03:25:54.367Z,63.65
2023-05-21T03:26:54.364Z,64.61
2023-05-21T03:27:54.368Z,63.33
2023-05-21T03:28:54.328Z,62.68
2023-05-21T03:29:54.328Z,64.13
2023-05-21T03:30:54.320Z,62.04
2023-05-21T03:31:54.358Z,62.04
2023-05-21T03:32:54.307Z,63.00
2023-05-21T03:33:54.281Z,62.36
2023-05-21T03:34:54.282Z,62.52
2023-05-21T03:35:54.265Z,62.84
2023-05-21T03:36:54.246Z,62.20
2023-05-21T03:37:54.232Z,63.49
2023-05-21T03:38:54.227Z,63.49
2023-05-21T03:39:54.225Z,62.68
2023-05-21T03:40:54.210Z,63.00
2023-05-21T03:41:54.193Z,62.52
2023-05-21T03:42:54.192Z,63.65
2023-05-21T03:43:54.170Z,62.36
2023-05-21T03:44:54.176Z,61.71
2023-05-21T03:45:54.167Z,61.39
2023-05-21T03:46:54.137Z,61.71
2023-05-21T03:47:54.173Z,62.36
2023-05-21T03:48:54.131Z,64.13
2023-05-21T03:49:54.115Z,63.49
2023-05-21T03:50:54.091Z,62.04
2023-05-21T03:51:54.099Z,64.94
2023-05-21T03:52:54.079Z,62.52
2023-05-21T03:53:55.068Z,63.33
2023-05-21T03:54:54.080Z,62.36
2023-05-21T03:55:54.056Z,62.52
2023-05-21T03:56:54.038Z,62.04
2023-05-21T03:57:54.021Z,62.84
2023-05-21T03:58:54.033Z,63.33
2023-05-21T03:59:54.009Z,62.68
2023-05-21T04:00:53.998Z,61.87
2023-05-21T04:01:53.988Z,63.00
2023-05-21T04:02:54.037Z,62.04
2023-05-21T04:03:54.079Z,62.36
2023-05-21T04:04:53.970Z,62.04
2023-05-21T04:05:53.950Z,61.23
2023-05-21T04:06:53.934Z,61.55
2023-05-21T04:07:53.945Z,61.71
2023-05-21T04:08:53.920Z,61.87
2023-05-21T04:09:53.910Z,63.00
2023-05-21T04:10:53.894Z,62.52
2023-05-21T04:11:53.915Z,61.07
2023-05-21T04:12:53.883Z,61.07
2023-05-21T04:13:53.865Z,61.07
2023-05-21T04:14:53.846Z,62.36
2023-05-21T04:15:53.886Z,63.33
2023-05-21T04:16:53.856Z,63.81
2023-05-21T04:17:53.892Z,62.52
2023-05-21T04:18:53.856Z,61.71
2023-05-21T04:19:53.795Z,62.36
2023-05-21T04:20:53.834Z,62.20
2023-05-21T04:21:53.785Z,63.49
2023-05-21T04:22:54.763Z,62.52
2023-05-21T04:23:53.756Z,64.45
2023-05-21T04:24:53.748Z,63.16
2023-05-21T04:26:25.652Z,63.49
2023-05-21T04:26:53.734Z,67.84
2023-05-21T04:27:53.709Z,66.87
2023-05-21T04:28:54.705Z,67.19
2023-05-21T04:29:53.702Z,68.16
2023-05-21T04:30:53.743Z,67.84
2023-05-21T04:31:53.687Z,68.16
2023-05-21T04:32:53.691Z,68.16
2023-05-21T04:33:53.652Z,68.16
2023-05-21T04:34:53.639Z,67.19
2023-05-21T04:35:53.643Z,68.16
2023-05-21T04:36:53.625Z,68.64
2023-05-21T04:37:53.610Z,68.48
2023-05-21T04:38:53.602Z,68.00
2023-05-21T04:39:53.593Z,68.80
2023-05-21T04:40:53.631Z,68.32
2023-05-21T04:41:53.588Z,68.32
2023-05-21T04:42:53.560Z,68.00
2023-05-21T04:43:53.546Z,68.32
2023-05-21T04:44:53.550Z,67.51
2023-05-21T04:45:53.545Z,68.00
2023-05-21T04:46:53.552Z,68.48
2023-05-21T04:47:53.534Z,68.00
2023-05-21T04:48:53.501Z,65.74
2023-05-21T04:49:53.504Z,66.23
2023-05-21T04:50:53.502Z,67.84
2023-05-21T04:51:53.463Z,67.35
2023-05-21T04:52:53.453Z,67.03
2023-05-21T04:53:53.442Z,67.19
2023-05-21T04:54:53.449Z,67.68
2023-05-21T04:55:53.422Z,67.84
2023-05-21T04:56:53.411Z,68.32
2023-05-21T04:57:53.537Z,67.84
2023-05-21T04:58:53.412Z,66.71
2023-05-21T04:59:53.398Z,66.87
2023-05-21T05:00:53.415Z,67.19
2023-05-21T05:01:53.370Z,66.87
2023-05-21T05:02:53.457Z,67.03
2023-05-21T05:03:53.405Z,68.00
2023-05-21T05:04:53.332Z,68.48
2023-05-21T05:05:53.324Z,67.51
2023-05-21T05:06:53.316Z,67.51
2023-05-21T05:07:53.336Z,66.87
2023-05-21T05:08:53.314Z,66.87
2023-05-21T05:09:53.287Z,67.35
2023-05-21T05:10:53.275Z,67.03
2023-05-21T05:11:53.260Z,67.03
2023-05-21T05:12:53.264Z,67.51
2023-05-21T05:13:53.253Z,67.51
2023-05-21T05:14:53.248Z,67.19
2023-05-21T05:15:54.553Z,67.19
2023-05-21T05:16:54.383Z,67.03
2023-05-21T05:17:53.242Z,67.19
2023-05-21T05:18:53.243Z,66.87
2023-05-21T05:19:53.199Z,66.87
2023-05-21T05:20:53.189Z,67.19
2023-05-21T05:21:53.170Z,66.87
2023-05-21T05:22:53.174Z,66.87
2023-05-21T05:23:53.153Z,66.87
2023-05-21T05:24:53.150Z,66.55
2023-05-21T05:25:53.129Z,66.55
2023-05-21T05:26:53.129Z,66.87
2023-05-21T05:27:53.117Z,66.71
2023-05-21T05:28:53.100Z,66.55
2023-05-21T05:29:53.081Z,66.71
2023-05-21T05:30:53.128Z,66.55
2023-05-21T05:31:53.173Z,66.71
2023-05-21T05:32:53.070Z,66.71
2023-05-21T05:33:53.068Z,66.39
2023-05-21T05:34:53.035Z,66.39
2023-05-21T05:35:53.030Z,66.55
2023-05-21T05:36:53.038Z,66.87
2023-05-21T05:37:53.012Z,65.90
2023-05-21T05:38:53.005Z,66.06
2023-05-21T05:39:53.105Z,67.19
2023-05-21T05:40:52.998Z,66.39
2023-05-21T05:41:53.972Z,66.71
2023-05-21T05:42:52.955Z,66.87
2023-05-21T05:43:52.954Z,66.87
2023-05-21T05:44:52.983Z,66.23
2023-05-21T05:45:53.050Z,66.71
2023-05-21T05:46:52.919Z,66.39
2023-05-21T05:47:52.980Z,66.06
2023-05-21T05:48:52.899Z,65.90
2023-05-21T05:49:52.882Z,66.23
2023-05-21T05:50:52.884Z,66.71
2023-05-21T05:51:52.858Z,67.03
2023-05-21T05:52:52.854Z,66.71
2023-05-21T05:53:52.843Z,66.71
2023-05-21T05:54:52.844Z,65.90
2023-05-21T05:55:52.825Z,65.90
2023-05-21T05:56:52.840Z,65.90
2023-05-21T05:57:52.807Z,66.39
2023-05-21T05:58:52.794Z,65.58
2023-05-21T05:59:52.801Z,66.23
2023-05-21T06:00:52.851Z,66.55
2023-05-21T06:01:52.759Z,66.87
2023-05-21T06:02:52.818Z,66.39
2023-05-21T06:03:52.762Z,65.74
2023-05-21T06:04:52.737Z,66.23
2023-05-21T06:05:52.774Z,67.03
2023-05-21T06:06:52.712Z,65.90
2023-05-21T06:07:52.708Z,66.55
2023-05-21T06:08:52.692Z,66.06
2023-05-21T06:09:52.696Z,66.39
2023-05-21T06:10:52.669Z,66.23
2023-05-21T06:11:52.665Z,66.23
2023-05-21T06:12:52.657Z,66.39
2023-05-21T06:13:52.658Z,66.39
2023-05-21T06:14:52.637Z,66.39
2023-05-21T06:15:52.719Z,67.03
2023-05-21T06:16:52.609Z,66.23
2023-05-21T06:17:52.633Z,66.39
2023-05-21T06:18:52.635Z,66.39
2023-05-21T06:19:52.585Z,66.87
2023-05-21T06:20:52.582Z,67.35
2023-05-21T06:21:52.555Z,66.39
2023-05-21T06:22:52.555Z,66.71
2023-05-21T06:23:52.549Z,66.71
2023-05-21T06:24:52.533Z,66.06
2023-05-21T06:25:52.519Z,65.74
2023-05-21T06:26:52.515Z,66.06
2023-05-21T06:27:52.517Z,66.71
2023-05-21T06:28:52.489Z,67.19
2023-05-21T06:29:52.480Z,67.51
2023-05-21T06:30:52.464Z,67.19
2023-05-21T06:31:52.467Z,66.39
2023-05-21T06:32:52.536Z,66.39
2023-05-21T06:33:52.494Z,65.90
2023-05-21T06:34:52.427Z,66.23
2023-05-21T06:35:52.420Z,66.39
2023-05-21T06:36:52.420Z,66.71
2023-05-21T06:37:52.426Z,66.23
2023-05-21T06:38:52.393Z,66.39
2023-05-21T06:39:52.377Z,66.87
2023-05-21T06:40:52.366Z,66.71
2023-05-21T06:41:52.381Z,65.74
2023-05-21T06:42:52.354Z,65.58
2023-05-21T06:43:52.342Z,65.74
2023-05-21T06:44:52.332Z,65.74
2023-05-21T06:45:52.355Z,65.58
2023-05-21T06:46:52.324Z,67.03
2023-05-21T06:47:52.439Z,66.23
2023-05-21T06:48:52.294Z,65.74
2023-05-21T06:49:52.314Z,65.26
2023-05-21T06:50:52.283Z,65.10
2023-05-21T06:51:52.273Z,64.94
2023-05-21T06:52:52.373Z,66.23
2023-05-21T06:53:52.241Z,66.06
2023-05-21T06:54:52.236Z,64.45
2023-05-21T06:55:52.234Z,65.90
2023-05-21T06:56:52.208Z,65.90
2023-05-21T06:57:52.205Z,64.78
2023-05-21T06:58:52.185Z,64.61
2023-05-21T06:59:52.171Z,65.42
2023-05-21T07:00:53.213Z,65.10
2023-05-21T07:01:52.185Z,65.10
2023-05-21T07:02:52.242Z,65.26
2023-05-21T07:03:52.138Z,65.10
2023-05-21T07:04:52.143Z,66.23
2023-05-21T07:05:52.121Z,65.58
2023-05-21T07:06:52.107Z,65.58
2023-05-21T07:07:52.095Z,65.90
2023-05-21T07:08:52.082Z,65.10
2023-05-21T07:09:52.105Z,64.45
2023-05-21T07:10:52.059Z,65.10
2023-05-21T07:11:52.052Z,66.23
2023-05-21T07:12:52.043Z,66.39
2023-05-21T07:13:52.031Z,66.39
2023-05-21T07:14:52.035Z,65.90
2023-05-21T07:15:52.012Z,64.45
2023-05-21T07:16:52.079Z,63.65
2023-05-21T07:17:52.035Z,63.00
2023-05-21T07:18:52.030Z,63.33
2023-05-21T07:19:51.984Z,62.52
2023-05-21T07:20:51.962Z,63.65
2023-05-21T07:21:52.036Z,63.65
2023-05-21T07:22:51.944Z,62.04
2023-05-21T07:23:51.948Z,63.65
2023-05-21T07:24:51.921Z,64.94
2023-05-21T07:25:51.916Z,64.94
2023-05-21T07:26:51.919Z,65.74
2023-05-21T07:27:51.889Z,64.78
2023-05-21T07:28:51.889Z,64.94
2023-05-21T07:29:52.917Z,64.61
2023-05-21T07:30:51.892Z,63.00
2023-05-21T07:31:51.850Z,62.68
2023-05-21T07:32:51.867Z,64.13
2023-05-21T07:33:51.855Z,63.49
2023-05-21T07:34:53.546Z,62.52
2023-05-21T07:35:51.812Z,62.68
2023-05-21T07:36:51.809Z,61.39
2023-05-21T07:37:51.832Z,62.52
2023-05-21T07:38:51.800Z,62.84
2023-05-21T07:39:51.772Z,62.68
2023-05-21T07:40:51.765Z,62.36
2023-05-21T07:41:51.756Z,63.16
2023-05-21T07:42:51.753Z,63.49
2023-05-21T07:43:51.740Z,61.07
2023-05-21T07:44:51.717Z,63.16
2023-05-21T07:45:51.823Z,63.65
2023-05-21T07:46:51.708Z,63.65
2023-05-21T07:47:51.744Z,63.33
2023-05-21T07:48:51.692Z,63.81
2023-05-21T07:49:51.689Z,64.13
2023-05-21T07:50:51.674Z,63.65
2023-05-21T07:51:51.679Z,63.49
2023-05-21T07:52:51.687Z,63.33
2023-05-21T07:53:53.776Z,60.91
2023-05-21T07:54:51.639Z,63.49
2023-05-21T07:55:51.626Z,64.78
2023-05-21T07:56:51.636Z,63.81
2023-05-21T07:57:51.610Z,63.33
2023-05-21T07:58:51.591Z,64.13
2023-05-21T07:59:51.584Z,65.10
2023-05-21T08:00:51.582Z,62.52
2023-05-21T08:01:51.590Z,63.65
2023-05-21T08:02:51.615Z,61.55
2023-05-21T08:03:51.706Z,64.29
2023-05-21T08:04:51.551Z,64.13
2023-05-21T08:05:51.540Z,63.81
2023-05-21T08:06:51.530Z,64.45
2023-05-21T08:07:51.518Z,64.13
2023-05-21T08:08:51.497Z,63.49
2023-05-21T08:09:51.493Z,64.13
2023-05-21T08:10:51.489Z,64.13
2023-05-21T08:11:51.475Z,62.84
2023-05-21T08:12:51.453Z,64.45
2023-05-21T08:13:51.453Z,65.58
2023-05-21T08:14:51.460Z,63.65
2023-05-21T08:15:53.312Z,62.68
2023-05-21T08:16:52.497Z,64.29
2023-05-21T08:17:51.457Z,65.26
2023-05-21T08:18:51.463Z,64.78
2023-05-21T08:19:51.405Z,62.68
2023-05-21T08:20:51.401Z,63.65
2023-05-21T08:21:52.953Z,63.16
2023-05-21T08:22:52.360Z,63.97
2023-05-21T08:23:51.340Z,61.87
2023-05-21T08:24:51.375Z,63.00
2023-05-21T08:25:51.331Z,64.61
2023-05-21T08:26:51.322Z,64.13
2023-05-21T08:27:52.411Z,62.68
2023-05-21T08:28:52.307Z,62.68
2023-05-21T08:29:51.304Z,61.07
2023-05-21T08:30:51.279Z,64.61
2023-05-21T08:31:51.294Z,62.84
2023-05-21T08:32:51.339Z,64.29
2023-05-21T08:33:51.263Z,62.84
2023-05-21T08:34:51.254Z,63.33
2023-05-21T08:35:51.235Z,61.87
2023-05-21T08:36:51.219Z,63.16
2023-05-21T08:37:51.212Z,62.36
2023-05-21T08:38:51.222Z,65.90
2023-05-21T08:39:51.193Z,61.55
2023-05-21T08:40:51.184Z,61.39
2023-05-21T08:41:51.171Z,62.84
2023-05-21T08:42:51.166Z,64.45
2023-05-21T08:43:52.548Z,64.29
2023-05-21T08:44:51.145Z,63.49
2023-05-21T08:45:51.137Z,65.10
2023-05-21T08:46:51.146Z,64.13
2023-05-21T08:47:51.171Z,66.06
2023-05-21T08:48:51.120Z,63.33
2023-05-21T08:49:51.087Z,64.13
2023-05-21T08:50:51.103Z,61.07
2023-05-21T08:51:51.072Z,64.61
2023-05-21T08:52:51.086Z,64.61
2023-05-21T08:53:51.072Z,61.07
2023-05-21T08:54:52.043Z,64.45
2023-05-21T08:55:51.776Z,64.94
2023-05-21T08:56:52.029Z,62.52
2023-05-21T08:57:51.037Z,63.81
2023-05-21T08:58:51.009Z,63.00
2023-05-21T08:59:50.996Z,65.10
2023-05-21T09:00:51.031Z,64.61
2023-05-21T09:01:51.057Z,63.81
2023-05-21T09:02:51.007Z,61.71
2023-05-21T09:03:51.050Z,62.84
2023-05-21T09:04:50.945Z,64.61
2023-05-21T09:05:50.932Z,64.61
2023-05-21T09:06:50.946Z,62.84
2023-05-21T09:07:52.463Z,62.84
2023-05-21T09:08:51.909Z,62.52
2023-05-21T09:09:50.900Z,63.65
2023-05-21T09:10:50.884Z,64.13
2023-05-21T09:11:50.888Z,65.10
2023-05-21T09:12:50.869Z,63.00
2023-05-21T09:13:50.868Z,63.00
2023-05-21T09:14:50.848Z,61.23
2023-05-21T09:15:50.849Z,60.42
2023-05-21T09:16:50.877Z,62.36
2023-05-21T09:17:50.915Z,64.78
2023-05-21T09:18:50.848Z,64.78
2023-05-21T09:19:50.793Z,63.65
2023-05-21T09:20:50.788Z,63.16
2023-05-21T09:21:50.775Z,66.06
2023-05-21T09:22:50.790Z,64.61
2023-05-21T09:23:50.752Z,62.84
2023-05-21T09:24:50.744Z,65.10
2023-05-21T09:25:50.750Z,62.84
2023-05-21T09:26:50.724Z,63.33
2023-05-21T09:27:50.714Z,64.61
2023-05-21T09:28:50.705Z,60.42
2023-05-21T09:29:50.707Z,62.36
2023-05-21T09:30:50.690Z,63.65
2023-05-21T09:31:50.719Z,65.42
2023-05-21T09:32:50.773Z,64.29
2023-05-21T09:33:50.656Z,64.13
2023-05-21T09:34:50.649Z,63.33
2023-05-21T09:35:50.630Z,64.61
2023-05-21T09:36:50.623Z,63.65
2023-05-21T09:37:50.608Z,65.42
2023-05-21T09:38:50.608Z,65.90
2023-05-21T09:39:50.602Z,64.61
2023-05-21T09:40:50.585Z,63.49
2023-05-21T09:41:50.572Z,63.00
2023-05-21T09:42:50.569Z,65.42
2023-05-21T09:43:50.568Z,63.16
2023-05-21T09:44:50.566Z,62.36
2023-05-21T09:45:50.530Z,61.39
2023-05-21T09:46:50.602Z,62.20
2023-05-21T09:47:50.583Z,60.59
2023-05-21T09:48:50.538Z,61.39
2023-05-21T09:49:50.500Z,64.13
2023-05-21T09:50:50.484Z,63.81
2023-05-21T09:51:50.473Z,63.97
2023-05-21T09:52:50.491Z,62.36
2023-05-21T09:53:50.515Z,61.55
2023-05-21T09:54:50.450Z,63.16
2023-05-21T09:55:50.437Z,64.61
2023-05-21T09:56:50.425Z,66.23
2023-05-21T09:57:51.047Z,62.68
2023-05-21T09:58:51.414Z,62.20
2023-05-21T09:59:50.399Z,64.78
2023-05-21T10:00:50.388Z,64.78
2023-05-21T10:01:50.457Z,63.00
2023-05-21T10:02:50.499Z,62.36
2023-05-21T10:03:50.790Z,64.94
2023-05-21T10:04:50.412Z,62.20
2023-05-21T10:05:50.339Z,63.65
2023-05-21T10:06:50.328Z,66.23
2023-05-21T10:07:50.355Z,62.84
2023-05-21T10:08:50.307Z,62.04
2023-05-21T10:09:50.322Z,58.81
2023-05-21T10:10:50.296Z,61.71
2023-05-21T10:11:50.293Z,63.65
2023-05-21T10:12:50.281Z,65.74
2023-05-21T10:13:50.265Z,61.71
2023-05-21T10:14:50.249Z,63.65
2023-05-21T10:15:51.019Z,62.68
2023-05-21T10:16:51.353Z,64.61
2023-05-21T10:17:50.280Z,63.97
2023-05-21T10:18:50.224Z,62.68
2023-05-21T10:19:50.202Z,62.84
2023-05-21T10:20:50.202Z,63.81
2023-05-21T10:21:51.936Z,63.49
2023-05-21T10:22:50.172Z,63.97
2023-05-21T10:23:50.167Z,63.97
2023-05-21T10:24:50.145Z,64.45
2023-05-21T10:26:16.063Z,65.10
2023-05-21T10:26:50.129Z,64.94
2023-05-21T10:27:50.119Z,63.16
2023-05-21T10:28:50.128Z,62.04
2023-05-21T10:29:50.116Z,61.87
2023-05-21T10:30:50.264Z,62.84
2023-05-21T10:31:51.129Z,64.13
2023-05-21T10:32:50.319Z,62.68
2023-05-21T10:33:50.074Z,63.16
2023-05-21T10:34:50.057Z,64.78
2023-05-21T10:35:51.434Z,62.68
2023-05-21T10:36:50.042Z,62.52
2023-05-21T10:37:50.030Z,64.29
2023-05-21T10:38:50.007Z,66.23
2023-05-21T10:39:50.014Z,64.13
2023-05-21T10:40:50.021Z,62.68
2023-05-21T10:41:52.384Z,65.10
2023-05-21T10:42:49.975Z,66.23
2023-05-21T10:43:49.964Z,63.97
2023-05-21T10:44:49.969Z,61.39
2023-05-21T10:45:50.021Z,63.97
2023-05-21T10:46:49.941Z,63.16
2023-05-21T10:47:51.075Z,63.16
2023-05-21T10:48:49.918Z,64.29
2023-05-21T10:49:49.915Z,62.36
2023-05-21T10:50:49.897Z,65.10
2023-05-21T10:51:49.884Z,62.84
2023-05-21T10:52:49.876Z,63.81
2023-05-21T10:53:49.878Z,65.26
2023-05-21T10:54:49.897Z,63.65
2023-05-21T10:55:49.845Z,63.65
2023-05-21T10:56:49.844Z,62.68
2023-05-21T10:57:49.829Z,63.33
2023-05-21T10:58:49.836Z,65.26
2023-05-21T10:59:49.812Z,62.52
2023-05-21T11:00:49.817Z,63.65
2023-05-21T11:01:49.894Z,62.84
2023-05-21T11:02:49.875Z,65.26
2023-05-21T11:03:49.824Z,63.65
2023-05-21T11:04:49.773Z,64.78
2023-05-21T11:05:49.755Z,64.61
2023-05-21T11:06:49.749Z,62.04
2023-05-21T11:07:49.759Z,63.00
2023-05-21T11:08:49.726Z,62.20
2023-05-21T11:09:49.721Z,60.59
2023-05-21T11:10:49.709Z,65.42
2023-05-21T11:11:49.696Z,66.23
2023-05-21T11:12:49.704Z,65.42
2023-05-21T11:13:49.918Z,62.68
2023-05-21T11:14:49.669Z,63.65
2023-05-21T11:15:49.663Z,64.78
2023-05-21T11:16:49.685Z,65.74
2023-05-21T11:17:49.658Z,63.97
2023-05-21T11:18:49.682Z,64.13
2023-05-21T11:19:49.627Z,63.49
2023-05-21T11:20:49.617Z,64.29
2023-05-21T11:21:49.614Z,62.36
2023-05-21T11:22:49.590Z,63.65
2023-05-21T11:23:49.593Z,63.65
2023-05-21T11:24:51.059Z,61.71
2023-05-21T11:25:50.575Z,63.49
2023-05-21T11:26:49.573Z,63.49
2023-05-21T11:27:49.550Z,63.97
2023-05-21T11:28:49.537Z,63.65
2023-05-21T11:29:49.537Z,63.49
2023-05-21T11:30:49.528Z,63.81
2023-05-21T11:31:49.559Z,62.20
2023-05-21T11:32:49.527Z,60.75
2023-05-21T11:33:49.490Z,62.20
2023-05-21T11:34:49.492Z,63.81
2023-05-21T11:35:49.477Z,62.84
2023-05-21T11:36:49.460Z,61.39
2023-05-21T11:37:49.449Z,60.10
2023-05-21T11:38:49.442Z,63.65
2023-05-21T11:39:49.431Z,63.65
2023-05-21T11:40:49.433Z,61.55
2023-05-21T11:41:49.426Z,61.39
2023-05-21T11:42:49.404Z,62.84
2023-05-21T11:43:49.392Z,61.55
2023-05-21T11:44:49.398Z,62.20
2023-05-21T11:45:49.395Z,64.94
2023-05-21T11:46:49.386Z,62.20
2023-05-21T11:47:49.463Z,62.52
2023-05-21T11:48:49.348Z,62.52
2023-05-21T11:49:49.351Z,62.20
2023-05-21T11:50:49.330Z,63.49
2023-05-21T11:51:49.316Z,64.61
2023-05-21T11:52:49.311Z,62.68
2023-05-21T11:53:49.296Z,63.65
2023-05-21T11:54:49.296Z,63.81
2023-05-21T11:55:49.274Z,63.33
2023-05-21T11:56:49.273Z,62.04
2023-05-21T11:57:49.267Z,61.71
2023-05-21T11:58:49.260Z,62.20
2023-05-21T11:59:49.254Z,61.87
2023-05-21T12:00:49.239Z,62.20
2023-05-21T12:01:49.219Z,62.20
2023-05-21T12:02:49.290Z,60.91
2023-05-21T12:03:49.299Z,61.55
2023-05-21T12:04:49.197Z,65.90
2023-05-21T12:05:49.394Z,64.29
2023-05-21T12:06:49.177Z,62.84
2023-05-21T12:07:49.168Z,61.07
2023-05-21T12:08:49.167Z,62.36
2023-05-21T12:09:49.147Z,62.68
2023-05-21T12:10:49.134Z,62.68
2023-05-21T12:11:49.131Z,61.87
2023-05-21T12:12:55.834Z,63.49
2023-05-21T12:13:51.163Z,64.94
2023-05-21T12:14:49.095Z,63.00
2023-05-21T12:15:49.094Z,61.07
2023-05-21T12:16:49.091Z,63.33
2023-05-21T12:17:49.084Z,63.97
2023-05-21T12:18:49.092Z,63.81
2023-05-21T12:19:50.048Z,63.33
2023-05-21T12:20:49.044Z,64.29
2023-05-21T12:21:49.031Z,63.81
2023-05-21T12:22:49.043Z,64.13
2023-05-21T12:23:49.015Z,65.26
2023-05-21T12:24:49.010Z,64.78
2023-05-21T12:25:48.991Z,64.13
2023-05-21T12:26:48.987Z,64.13
2023-05-21T12:27:48.991Z,63.49
2023-05-21T12:28:48.963Z,63.00
2023-05-21T12:29:48.956Z,64.61
2023-05-21T12:30:48.939Z,62.68
2023-05-21T12:31:48.959Z,62.52
2023-05-21T12:32:48.928Z,62.68
2023-05-21T12:33:48.911Z,64.45
2023-05-21T12:34:48.898Z,64.78
2023-05-21T12:35:49.045Z,63.49
2023-05-21T12:36:48.887Z,61.71
2023-05-21T12:37:48.869Z,64.78
2023-05-21T12:38:48.860Z,62.68
2023-05-21T12:39:48.845Z,63.97
2023-05-21T12:40:48.849Z,63.16
2023-05-21T12:41:48.840Z,65.26
2023-05-21T12:42:48.833Z,62.84
2023-05-21T12:43:48.813Z,63.49
2023-05-21T12:44:48.807Z,62.68
2023-05-21T12:45:48.837Z,63.00
2023-05-21T12:46:48.797Z,64.45
2023-05-21T12:47:48.836Z,65.58
2023-05-21T12:48:48.773Z,64.61
2023-05-21T12:49:48.764Z,61.87
2023-05-21T12:50:48.755Z,62.52
2023-05-21T12:51:48.749Z,62.04
2023-05-21T12:52:48.730Z,65.42